sensor_id;sensor_type;location;lat;lon;timestamp;P1;durP1;ratioP1;P2;durP2;ratioP2
1128;SDS011;553;51.038;7.216;2023-06-22T00:01:18;8.20;;;7.40;;
1128;SDS011;553;51.038;7.216;2023-06-22T00:03:46;7.63;;;6.80;;
1128;SDS011;553;51.038;7.216;2023-06-22T00:06:13;9.67;;;7.87;;
1128;SDS011;553;51.038;7.216;2023-06-22T00:08:40;8.97;;;8.10;;
1128;SDS011;553;51.038;7.216;2023-06-22T00:11:06;8.83;;;7.67;;
1128;SDS011;553;51.038;7.216;2023-06-22T00:13:33;9.17;;;7.03;;
1128;SDS011;553;51.038;7.216;2023-06-22T00:16:00;10.83;;;8.17;;
1128;SDS011;553;51.038;7.216;2023-06-22T00:18:27;7.13;;;6.43;;
1128;SDS011;553;51.038;7.216;2023-06-22T00:20:55;7.90;;;7.10;;
1128;SDS011;553;51.038;7.216;2023-06-22T00:23:25;9.90;;;7.97;;
1128;SDS011;553;51.038;7.216;2023-06-22T00:25:52;7.57;;;6.77;;
1128;SDS011;553;51.038;7.216;2023-06-22T00:28:19;8.20;;;7.03;;
1128;SDS011;553;51.038;7.216;2023-06-22T00:30:46;8.40;;;7.33;;
1128;SDS011;553;51.038;7.216;2023-06-22T00:33:13;8.30;;;6.57;;
1128;SDS011;553;51.038;7.216;2023-06-22T00:35:42;7.43;;;6.73;;
1128;SDS011;553;51.038;7.216;2023-06-22T00:38:08;7.97;;;7.17;;
1128;SDS011;553;51.038;7.216;2023-06-22T00:40:35;8.27;;;7.47;;
1128;SDS011;553;51.038;7.216;2023-06-22T00:43:03;7.63;;;6.83;;
1128;SDS011;553;51.038;7.216;2023-06-22T00:45:31;9.60;;;7.30;;
1128;SDS011;553;51.038;7.216;2023-06-22T00:47:58;7.50;;;6.60;;
1128;SDS011;553;51.038;7.216;2023-06-22T00:50:27;9.67;;;6.30;;
1128;SDS011;553;51.038;7.216;2023-06-22T00:53:00;8.53;;;6.23;;
1128;SDS011;553;51.038;7.216;2023-06-22T00:55:38;7.93;;;6.50;;
1128;SDS011;553;51.038;7.216;2023-06-22T00:58:09;8.77;;;7.17;;
1128;SDS011;553;51.038;7.216;2023-06-22T01:00:37;7.33;;;6.53;;
1128;SDS011;553;51.038;7.216;2023-06-22T01:03:05;7.40;;;6.67;;
1128;SDS011;553;51.038;7.216;2023-06-22T01:05:36;9.73;;;6.30;;
1128;SDS011;553;51.038;7.216;2023-06-22T01:10:41;8.10;;;7.30;;
1128;SDS011;553;51.038;7.216;2023-06-22T01:13:18;7.93;;;7.10;;
1128;SDS011;553;51.038;7.216;2023-06-22T01:16:08;8.23;;;7.33;;
1128;SDS011;553;51.038;7.216;2023-06-22T01:18:42;7.60;;;6.90;;
1128;SDS011;553;51.038;7.216;2023-06-22T01:21:12;7.30;;;6.57;;
1128;SDS011;553;51.038;7.216;2023-06-22T01:24:03;7.70;;;6.80;;
1128;SDS011;553;51.038;7.216;2023-06-22T01:27:05;7.40;;;6.60;;
1128;SDS011;553;51.038;7.216;2023-06-22T01:29:51;8.67;;;7.43;;
1128;SDS011;553;51.038;7.216;2023-06-22T01:32:30;7.33;;;6.63;;
1128;SDS011;553;51.038;7.216;2023-06-22T01:35:00;7.17;;;6.43;;
1128;SDS011;553;51.038;7.216;2023-06-22T01:37:29;7.70;;;6.73;;
1128;SDS011;553;51.038;7.216;2023-06-22T01:39:58;9.00;;;7.17;;
1128;SDS011;553;51.038;7.216;2023-06-22T01:42:25;7.00;;;6.27;;
1128;SDS011;553;51.038;7.216;2023-06-22T01:44:52;7.63;;;6.80;;
1128;SDS011;553;51.038;7.216;2023-06-22T01:47:20;7.20;;;6.50;;
1128;SDS011;553;51.038;7.216;2023-06-22T01:49:48;8.00;;;6.30;;
1128;SDS011;553;51.038;7.216;2023-06-22T01:52:15;7.83;;;7.03;;
1128;SDS011;553;51.038;7.216;2023-06-22T01:54:42;8.60;;;6.57;;
1128;SDS011;553;51.038;7.216;2023-06-22T01:57:09;7.30;;;6.10;;
1128;SDS011;553;51.038;7.216;2023-06-22T02:05:46;7.67;;;6.90;;
1128;SDS011;553;51.038;7.216;2023-06-22T02:08:20;7.80;;;7.00;;
1128;SDS011;553;51.038;7.216;2023-06-22T02:10:51;7.13;;;6.43;;
1128;SDS011;553;51.038;7.216;2023-06-22T02:13:20;7.60;;;6.90;;
1128;SDS011;553;51.038;7.216;2023-06-22T02:15:47;6.63;;;5.90;;
1128;SDS011;553;51.038;7.216;2023-06-22T02:18:14;7.33;;;6.63;;
1128;SDS011;553;51.038;7.216;2023-06-22T02:20:41;8.00;;;7.20;;
1128;SDS011;553;51.038;7.216;2023-06-22T02:23:08;9.57;;;7.23;;
1128;SDS011;553;51.038;7.216;2023-06-22T02:25:35;7.50;;;6.30;;
1128;SDS011;553;51.038;7.216;2023-06-22T02:28:02;8.03;;;7.27;;
1128;SDS011;553;51.038;7.216;2023-06-22T02:30:29;8.10;;;7.20;;
1128;SDS011;553;51.038;7.216;2023-06-22T02:32:56;7.43;;;6.50;;
1128;SDS011;553;51.038;7.216;2023-06-22T02:35:29;9.00;;;7.17;;
1128;SDS011;553;51.038;7.216;2023-06-22T02:38:03;6.97;;;6.37;;
1128;SDS011;553;51.038;7.216;2023-06-22T02:40:30;9.47;;;7.73;;
1128;SDS011;553;51.038;7.216;2023-06-22T02:42:58;9.00;;;7.23;;
1128;SDS011;553;51.038;7.216;2023-06-22T02:45:28;10.63;;;7.57;;
1128;SDS011;553;51.038;7.216;2023-06-22T02:47:56;7.93;;;6.83;;
1128;SDS011;553;51.038;7.216;2023-06-22T02:50:23;9.87;;;8.17;;
1128;SDS011;553;51.038;7.216;2023-06-22T02:52:51;8.93;;;7.60;;
1128;SDS011;553;51.038;7.216;2023-06-22T02:55:18;10.97;;;8.20;;
1128;SDS011;553;51.038;7.216;2023-06-22T02:57:52;8.80;;;8.00;;
1128;SDS011;553;51.038;7.216;2023-06-22T03:00:19;10.73;;;8.30;;
1128;SDS011;553;51.038;7.216;2023-06-22T03:02:48;10.30;;;7.60;;
1128;SDS011;553;51.038;7.216;2023-06-22T03:05:16;10.80;;;8.30;;
1128;SDS011;553;51.038;7.216;2023-06-22T03:07:45;8.90;;;8.00;;
1128;SDS011;553;51.038;7.216;2023-06-22T03:10:13;10.10;;;8.43;;
1128;SDS011;553;51.038;7.216;2023-06-22T03:12:41;9.73;;;7.83;;
1128;SDS011;553;51.038;7.216;2023-06-22T03:15:09;9.13;;;8.23;;
1128;SDS011;553;51.038;7.216;2023-06-22T03:17:37;9.23;;;8.33;;
1128;SDS011;553;51.038;7.216;2023-06-22T03:20:07;10.40;;;8.50;;
1128;SDS011;553;51.038;7.216;2023-06-22T03:22:36;9.67;;;8.60;;
1128;SDS011;553;51.038;7.216;2023-06-22T03:25:04;10.10;;;7.70;;
1128;SDS011;553;51.038;7.216;2023-06-22T03:27:39;9.17;;;8.27;;
1128;SDS011;553;51.038;7.216;2023-06-22T03:30:08;8.97;;;8.07;;
1128;SDS011;553;51.038;7.216;2023-06-22T03:32:36;9.20;;;8.10;;
1128;SDS011;553;51.038;7.216;2023-06-22T03:35:05;10.80;;;8.47;;
1128;SDS011;553;51.038;7.216;2023-06-22T03:37:34;8.53;;;7.70;;
1128;SDS011;553;51.038;7.216;2023-06-22T03:40:01;10.17;;;9.07;;
1128;SDS011;553;51.038;7.216;2023-06-22T03:42:33;9.03;;;8.10;;
1128;SDS011;553;51.038;7.216;2023-06-22T03:45:02;9.73;;;8.47;;
1128;SDS011;553;51.038;7.216;2023-06-22T03:47:29;10.20;;;8.73;;
1128;SDS011;553;51.038;7.216;2023-06-22T03:49:57;10.10;;;8.40;;
1128;SDS011;553;51.038;7.216;2023-06-22T03:52:24;8.43;;;7.60;;
1128;SDS011;553;51.038;7.216;2023-06-22T03:54:51;10.00;;;8.87;;
1128;SDS011;553;51.038;7.216;2023-06-22T03:57:18;10.37;;;9.33;;
1128;SDS011;553;51.038;7.216;2023-06-22T03:59:45;10.13;;;9.10;;
1128;SDS011;553;51.038;7.216;2023-06-22T04:02:11;10.80;;;9.70;;
1128;SDS011;553;51.038;7.216;2023-06-22T04:04:38;10.90;;;9.90;;
1128;SDS011;553;51.038;7.216;2023-06-22T04:07:06;9.83;;;8.90;;
1128;SDS011;553;51.038;7.216;2023-06-22T04:09:33;9.97;;;8.97;;
1128;SDS011;553;51.038;7.216;2023-06-22T04:12:00;9.80;;;8.90;;
1128;SDS011;553;51.038;7.216;2023-06-22T04:14:27;11.13;;;9.97;;
1128;SDS011;553;51.038;7.216;2023-06-22T04:16:54;12.07;;;9.67;;
1128;SDS011;553;51.038;7.216;2023-06-22T04:19:21;12.53;;;11.23;;
1128;SDS011;553;51.038;7.216;2023-06-22T04:21:48;11.27;;;10.17;;
1128;SDS011;553;51.038;7.216;2023-06-22T04:24:15;11.53;;;10.37;;
1128;SDS011;553;51.038;7.216;2023-06-22T04:26:42;12.50;;;11.20;;
1128;SDS011;553;51.038;7.216;2023-06-22T04:29:11;11.40;;;10.40;;
1128;SDS011;553;51.038;7.216;2023-06-22T04:31:38;10.80;;;9.80;;
1128;SDS011;553;51.038;7.216;2023-06-22T04:34:06;12.80;;;11.50;;
1128;SDS011;553;51.038;7.216;2023-06-22T04:36:38;12.40;;;11.20;;
1128;SDS011;553;51.038;7.216;2023-06-22T04:39:10;14.63;;;10.97;;
1128;SDS011;553;51.038;7.216;2023-06-22T04:41:38;12.30;;;11.07;;
1128;SDS011;553;51.038;7.216;2023-06-22T04:44:11;13.73;;;12.33;;
1128;SDS011;553;51.038;7.216;2023-06-22T04:46:52;12.97;;;11.73;;
1128;SDS011;553;51.038;7.216;2023-06-22T04:49:20;13.47;;;12.27;;
1128;SDS011;553;51.038;7.216;2023-06-22T04:51:48;14.90;;;13.40;;
1128;SDS011;553;51.038;7.216;2023-06-22T04:54:17;13.63;;;12.37;;
1128;SDS011;553;51.038;7.216;2023-06-22T04:56:44;17.70;;;13.30;;
1128;SDS011;553;51.038;7.216;2023-06-22T04:59:13;14.13;;;12.80;;
1128;SDS011;553;51.038;7.216;2023-06-22T05:01:41;12.93;;;11.83;;
1128;SDS011;553;51.038;7.216;2023-06-22T05:04:08;13.93;;;12.53;;
1128;SDS011;553;51.038;7.216;2023-06-22T05:06:35;13.90;;;12.50;;
1128;SDS011;553;51.038;7.216;2023-06-22T05:09:04;13.90;;;12.47;;
1128;SDS011;553;51.038;7.216;2023-06-22T05:11:32;14.50;;;13.10;;
1128;SDS011;553;51.038;7.216;2023-06-22T05:13:58;14.50;;;13.10;;
1128;SDS011;553;51.038;7.216;2023-06-22T05:16:25;12.93;;;11.83;;
1128;SDS011;553;51.038;7.216;2023-06-22T05:18:52;14.30;;;12.80;;
1128;SDS011;553;51.038;7.216;2023-06-22T05:21:23;14.80;;;13.30;;
1128;SDS011;553;51.038;7.216;2023-06-22T05:23:52;14.80;;;13.40;;
1128;SDS011;553;51.038;7.216;2023-06-22T05:26:20;15.07;;;13.60;;
1128;SDS011;553;51.038;7.216;2023-06-22T05:28:47;14.20;;;12.90;;
1128;SDS011;553;51.038;7.216;2023-06-22T05:31:14;14.90;;;13.40;;
1128;SDS011;553;51.038;7.216;2023-06-22T05:33:42;15.80;;;14.20;;
1128;SDS011;553;51.038;7.216;2023-06-22T05:36:10;15.90;;;14.20;;
1128;SDS011;553;51.038;7.216;2023-06-22T05:38:37;15.20;;;13.20;;
1128;SDS011;553;51.038;7.216;2023-06-22T05:41:04;14.30;;;12.80;;
1128;SDS011;553;51.038;7.216;2023-06-22T05:43:31;14.77;;;13.37;;
1128;SDS011;553;51.038;7.216;2023-06-22T05:45:58;13.73;;;12.53;;
1128;SDS011;553;51.038;7.216;2023-06-22T05:48:25;13.40;;;12.10;;
1128;SDS011;553;51.038;7.216;2023-06-22T05:50:53;13.37;;;12.07;;
1128;SDS011;553;51.038;7.216;2023-06-22T05:53:20;14.77;;;12.50;;
1128;SDS011;553;51.038;7.216;2023-06-22T05:55:47;14.60;;;13.20;;
1128;SDS011;553;51.038;7.216;2023-06-22T05:58:14;14.60;;;13.20;;
1128;SDS011;553;51.038;7.216;2023-06-22T06:00:41;14.53;;;13.03;;
1128;SDS011;553;51.038;7.216;2023-06-22T06:03:09;14.97;;;13.57;;
1128;SDS011;553;51.038;7.216;2023-06-22T06:05:40;14.63;;;13.23;;
1128;SDS011;553;51.038;7.216;2023-06-22T06:08:07;15.07;;;13.70;;
1128;SDS011;553;51.038;7.216;2023-06-22T06:10:34;14.93;;;13.63;;
1128;SDS011;553;51.038;7.216;2023-06-22T06:13:01;15.03;;;13.53;;
1128;SDS011;553;51.038;7.216;2023-06-22T06:15:30;15.30;;;13.87;;
1128;SDS011;553;51.038;7.216;2023-06-22T06:17:58;13.87;;;12.57;;
1128;SDS011;553;51.038;7.216;2023-06-22T06:20:25;13.07;;;11.87;;
1128;SDS011;553;51.038;7.216;2023-06-22T06:22:54;12.43;;;11.33;;
1128;SDS011;553;51.038;7.216;2023-06-22T06:25:22;13.30;;;12.00;;
1128;SDS011;553;51.038;7.216;2023-06-22T06:27:50;12.03;;;10.67;;
1128;SDS011;553;51.038;7.216;2023-06-22T06:30:18;11.97;;;10.27;;
1128;SDS011;553;51.038;7.216;2023-06-22T06:32:45;10.60;;;9.50;;
1128;SDS011;553;51.038;7.216;2023-06-22T06:35:13;10.67;;;9.67;;
1128;SDS011;553;51.038;7.216;2023-06-22T06:37:42;12.33;;;11.23;;
1128;SDS011;553;51.038;7.216;2023-06-22T06:40:11;9.80;;;8.80;;
1128;SDS011;553;51.038;7.216;2023-06-22T06:42:40;9.87;;;8.90;;
1128;SDS011;553;51.038;7.216;2023-06-22T06:45:17;8.93;;;8.13;;
1128;SDS011;553;51.038;7.216;2023-06-22T06:47:45;9.30;;;8.50;;
1128;SDS011;553;51.038;7.216;2023-06-22T06:50:13;9.83;;;8.80;;
1128;SDS011;553;51.038;7.216;2023-06-22T06:52:39;9.73;;;8.47;;
1128;SDS011;553;51.038;7.216;2023-06-22T06:55:07;9.07;;;8.17;;
1128;SDS011;553;51.038;7.216;2023-06-22T06:57:38;8.13;;;7.40;;
1128;SDS011;553;51.038;7.216;2023-06-22T07:00:06;8.93;;;8.10;;
1128;SDS011;553;51.038;7.216;2023-06-22T07:02:42;9.37;;;8.40;;
1128;SDS011;553;51.038;7.216;2023-06-22T07:05:10;8.77;;;8.07;;
1128;SDS011;553;51.038;7.216;2023-06-22T07:07:38;12.07;;;8.60;;
1128;SDS011;553;51.038;7.216;2023-06-22T07:10:05;8.90;;;8.10;;
1128;SDS011;553;51.038;7.216;2023-06-22T07:12:32;9.80;;;8.90;;
1128;SDS011;553;51.038;7.216;2023-06-22T07:17:30;9.80;;;8.90;;
1128;SDS011;553;51.038;7.216;2023-06-22T07:19:57;11.60;;;8.60;;
1128;SDS011;553;51.038;7.216;2023-06-22T07:22:24;10.47;;;9.47;;
1128;SDS011;553;51.038;7.216;2023-06-22T07:24:51;10.93;;;10.00;;
1128;SDS011;553;51.038;7.216;2023-06-22T07:27:17;13.40;;;11.47;;
1128;SDS011;553;51.038;7.216;2023-06-22T07:29:45;11.73;;;10.63;;
1128;SDS011;553;51.038;7.216;2023-06-22T07:32:12;11.67;;;10.57;;
1128;SDS011;553;51.038;7.216;2023-06-22T07:34:39;11.33;;;10.33;;
1128;SDS011;553;51.038;7.216;2023-06-22T07:37:05;12.10;;;11.10;;
1128;SDS011;553;51.038;7.216;2023-06-22T07:39:32;13.13;;;11.93;;
1128;SDS011;553;51.038;7.216;2023-06-22T07:41:59;15.77;;;11.53;;
1128;SDS011;553;51.038;7.216;2023-06-22T07:44:25;10.33;;;9.43;;
1128;SDS011;553;51.038;7.216;2023-06-22T07:46:52;12.20;;;11.00;;
1128;SDS011;553;51.038;7.216;2023-06-22T07:49:19;11.13;;;10.17;;
1128;SDS011;553;51.038;7.216;2023-06-22T07:51:45;10.07;;;9.17;;
1128;SDS011;553;51.038;7.216;2023-06-22T07:54:12;11.80;;;10.67;;
1128;SDS011;553;51.038;7.216;2023-06-22T07:56:41;10.07;;;8.87;;
1128;SDS011;553;51.038;7.216;2023-06-22T07:59:09;10.30;;;9.40;;
1128;SDS011;553;51.038;7.216;2023-06-22T08:01:36;9.47;;;8.67;;
1128;SDS011;553;51.038;7.216;2023-06-22T08:04:02;9.53;;;8.57;;
1128;SDS011;553;51.038;7.216;2023-06-22T08:06:30;10.77;;;9.87;;
1128;SDS011;553;51.038;7.216;2023-06-22T08:08:57;9.20;;;8.40;;
1128;SDS011;553;51.038;7.216;2023-06-22T08:11:25;8.67;;;7.87;;
1128;SDS011;553;51.038;7.216;2023-06-22T08:13:52;10.07;;;9.17;;
1128;SDS011;553;51.038;7.216;2023-06-22T08:16:18;8.80;;;8.00;;
1128;SDS011;553;51.038;7.216;2023-06-22T08:18:45;10.40;;;9.40;;
1128;SDS011;553;51.038;7.216;2023-06-22T08:21:12;9.07;;;8.27;;
1128;SDS011;553;51.038;7.216;2023-06-22T08:23:38;9.93;;;9.00;;
1128;SDS011;553;51.038;7.216;2023-06-22T08:26:05;9.33;;;8.43;;
1128;SDS011;553;51.038;7.216;2023-06-22T08:28:32;9.33;;;8.53;;
1128;SDS011;553;51.038;7.216;2023-06-22T08:30:59;9.37;;;8.50;;
1128;SDS011;553;51.038;7.216;2023-06-22T08:33:27;9.43;;;8.43;;
1128;SDS011;553;51.038;7.216;2023-06-22T08:35:57;10.63;;;9.53;;
1128;SDS011;553;51.038;7.216;2023-06-22T08:38:24;10.07;;;9.17;;
1128;SDS011;553;51.038;7.216;2023-06-22T08:40:51;10.10;;;9.20;;
1128;SDS011;553;51.038;7.216;2023-06-22T08:43:18;9.80;;;8.80;;
1128;SDS011;553;51.038;7.216;2023-06-22T08:45:45;10.57;;;9.63;;
1128;SDS011;553;51.038;7.216;2023-06-22T08:48:12;10.37;;;9.43;;
1128;SDS011;553;51.038;7.216;2023-06-22T08:50:38;9.40;;;8.50;;
1128;SDS011;553;51.038;7.216;2023-06-22T08:53:07;12.70;;;9.70;;
1128;SDS011;553;51.038;7.216;2023-06-22T08:55:33;10.20;;;9.30;;
1128;SDS011;553;51.038;7.216;2023-06-22T08:58:00;10.83;;;9.77;;
1128;SDS011;553;51.038;7.216;2023-06-22T09:00:27;9.60;;;8.80;;
1128;SDS011;553;51.038;7.216;2023-06-22T09:02:55;10.67;;;9.57;;
1128;SDS011;553;51.038;7.216;2023-06-22T09:05:25;9.80;;;9.00;;
1128;SDS011;553;51.038;7.216;2023-06-22T09:07:58;9.93;;;9.13;;
1128;SDS011;553;51.038;7.216;2023-06-22T09:10:25;10.80;;;9.90;;
1128;SDS011;553;51.038;7.216;2023-06-22T09:12:52;9.67;;;8.80;;
1128;SDS011;553;51.038;7.216;2023-06-22T09:15:19;8.73;;;7.93;;
1128;SDS011;553;51.038;7.216;2023-06-22T09:17:47;8.57;;;7.77;;
1128;SDS011;553;51.038;7.216;2023-06-22T09:20:14;9.07;;;8.27;;
1128;SDS011;553;51.038;7.216;2023-06-22T09:22:41;8.80;;;8.00;;
1128;SDS011;553;51.038;7.216;2023-06-22T09:25:08;9.17;;;8.17;;
1128;SDS011;553;51.038;7.216;2023-06-22T09:27:35;8.87;;;7.97;;
1128;SDS011;553;51.038;7.216;2023-06-22T09:30:02;9.73;;;7.67;;
1128;SDS011;553;51.038;7.216;2023-06-22T09:32:30;7.90;;;7.10;;
1128;SDS011;553;51.038;7.216;2023-06-22T09:34:56;8.03;;;7.33;;
1128;SDS011;553;51.038;7.216;2023-06-22T09:37:23;7.93;;;7.23;;
1128;SDS011;553;51.038;7.216;2023-06-22T09:39:50;8.70;;;7.80;;
1128;SDS011;553;51.038;7.216;2023-06-22T09:42:17;8.80;;;8.00;;
1128;SDS011;553;51.038;7.216;2023-06-22T09:44:43;9.10;;;8.30;;
1128;SDS011;553;51.038;7.216;2023-06-22T09:47:10;9.57;;;7.47;;
1128;SDS011;553;51.038;7.216;2023-06-22T09:49:37;8.90;;;8.10;;
1128;SDS011;553;51.038;7.216;2023-06-22T09:52:13;8.63;;;7.83;;
1128;SDS011;553;51.038;7.216;2023-06-22T09:54:40;10.17;;;7.97;;
1128;SDS011;553;51.038;7.216;2023-06-22T09:57:07;9.33;;;8.43;;
1128;SDS011;553;51.038;7.216;2023-06-22T09:59:34;9.20;;;7.50;;
1128;SDS011;553;51.038;7.216;2023-06-22T10:02:01;9.33;;;8.53;;
1128;SDS011;553;51.038;7.216;2023-06-22T10:04:28;9.13;;;8.33;;
1128;SDS011;553;51.038;7.216;2023-06-22T10:06:55;9.63;;;8.63;;
1128;SDS011;553;51.038;7.216;2023-06-22T10:09:22;10.13;;;8.93;;
1128;SDS011;553;51.038;7.216;2023-06-22T10:11:49;10.50;;;8.77;;
1128;SDS011;553;51.038;7.216;2023-06-22T10:14:16;11.23;;;9.97;;
1128;SDS011;553;51.038;7.216;2023-06-22T10:16:43;9.27;;;8.37;;
1128;SDS011;553;51.038;7.216;2023-06-22T10:19:09;10.67;;;9.60;;
1128;SDS011;553;51.038;7.216;2023-06-22T10:21:36;9.93;;;9.10;;
1128;SDS011;553;51.038;7.216;2023-06-22T10:24:03;12.00;;;10.30;;
1128;SDS011;553;51.038;7.216;2023-06-22T10:26:33;11.20;;;9.70;;
1128;SDS011;553;51.038;7.216;2023-06-22T10:28:59;10.00;;;9.00;;
1128;SDS011;553;51.038;7.216;2023-06-22T10:31:32;11.90;;;8.87;;
1128;SDS011;553;51.038;7.216;2023-06-22T10:33:59;10.90;;;9.90;;
1128;SDS011;553;51.038;7.216;2023-06-22T10:36:26;10.47;;;9.43;;
1128;SDS011;553;51.038;7.216;2023-06-22T10:38:53;10.20;;;9.30;;
1128;SDS011;553;51.038;7.216;2023-06-22T10:41:21;10.40;;;9.40;;
1128;SDS011;553;51.038;7.216;2023-06-22T10:43:48;11.30;;;10.23;;
1128;SDS011;553;51.038;7.216;2023-06-22T10:46:15;10.53;;;9.53;;
1128;SDS011;553;51.038;7.216;2023-06-22T10:48:41;10.83;;;9.83;;
1128;SDS011;553;51.038;7.216;2023-06-22T10:51:08;13.03;;;11.73;;
1128;SDS011;553;51.038;7.216;2023-06-22T10:53:35;10.50;;;9.50;;
1128;SDS011;553;51.038;7.216;2023-06-22T10:56:01;12.00;;;10.80;;
1128;SDS011;553;51.038;7.216;2023-06-22T10:58:28;12.17;;;10.90;;
1128;SDS011;553;51.038;7.216;2023-06-22T11:00:55;12.07;;;10.90;;
1128;SDS011;553;51.038;7.216;2023-06-22T11:03:22;13.60;;;12.40;;
1128;SDS011;553;51.038;7.216;2023-06-22T11:05:49;13.20;;;11.97;;
1128;SDS011;553;51.038;7.216;2023-06-22T11:08:16;13.30;;;12.10;;
1128;SDS011;553;51.038;7.216;2023-06-22T11:10:43;13.13;;;11.93;;
1128;SDS011;553;51.038;7.216;2023-06-22T11:13:10;14.17;;;12.87;;
1128;SDS011;553;51.038;7.216;2023-06-22T11:15:38;14.27;;;12.83;;
1128;SDS011;553;51.038;7.216;2023-06-22T11:18:05;15.40;;;13.60;;
1128;SDS011;553;51.038;7.216;2023-06-22T11:20:33;16.30;;;13.97;;
1128;SDS011;553;51.038;7.216;2023-06-22T11:23:05;14.83;;;13.33;;
1128;SDS011;553;51.038;7.216;2023-06-22T11:25:34;14.73;;;13.30;;
1128;SDS011;553;51.038;7.216;2023-06-22T11:28:02;17.63;;;15.10;;
1128;SDS011;553;51.038;7.216;2023-06-22T11:30:29;16.17;;;14.47;;
1128;SDS011;553;51.038;7.216;2023-06-22T11:32:58;17.73;;;15.80;;
1128;SDS011;553;51.038;7.216;2023-06-22T11:35:25;16.83;;;15.13;;
1128;SDS011;553;51.038;7.216;2023-06-22T11:37:52;18.63;;;16.73;;
1128;SDS011;553;51.038;7.216;2023-06-22T11:40:19;18.53;;;16.73;;
1128;SDS011;553;51.038;7.216;2023-06-22T11:42:45;15.87;;;14.47;;
1128;SDS011;553;51.038;7.216;2023-06-22T11:45:12;17.87;;;16.20;;
1128;SDS011;553;51.038;7.216;2023-06-22T11:47:39;18.63;;;16.63;;
1128;SDS011;553;51.038;7.216;2023-06-22T11:50:06;19.57;;;17.60;;
1128;SDS011;553;51.038;7.216;2023-06-22T11:52:33;18.90;;;17.00;;
1128;SDS011;553;51.038;7.216;2023-06-22T11:55:02;19.07;;;17.27;;
1128;SDS011;553;51.038;7.216;2023-06-22T11:57:38;21.37;;;18.10;;
1128;SDS011;553;51.038;7.216;2023-06-22T12:00:17;20.40;;;18.33;;
1128;SDS011;553;51.038;7.216;2023-06-22T12:02:45;19.47;;;17.63;;
1128;SDS011;553;51.038;7.216;2023-06-22T12:05:12;19.60;;;17.57;;
1128;SDS011;553;51.038;7.216;2023-06-22T12:07:39;20.20;;;18.10;;
1128;SDS011;553;51.038;7.216;2023-06-22T12:10:06;19.13;;;17.30;;
1128;SDS011;553;51.038;7.216;2023-06-22T12:12:33;20.87;;;18.67;;
1128;SDS011;553;51.038;7.216;2023-06-22T12:15:00;19.17;;;17.17;;
1128;SDS011;553;51.038;7.216;2023-06-22T12:17:29;18.67;;;16.97;;
1128;SDS011;553;51.038;7.216;2023-06-22T12:19:56;18.03;;;15.53;;
1128;SDS011;553;51.038;7.216;2023-06-22T12:22:24;18.27;;;16.50;;
1128;SDS011;553;51.038;7.216;2023-06-22T12:24:51;17.50;;;15.77;;
1128;SDS011;553;51.038;7.216;2023-06-22T12:27:18;17.90;;;15.73;;
1128;SDS011;553;51.038;7.216;2023-06-22T12:29:47;16.83;;;15.23;;
1128;SDS011;553;51.038;7.216;2023-06-22T12:32:14;16.47;;;14.63;;
1128;SDS011;553;51.038;7.216;2023-06-22T12:34:44;19.07;;;16.60;;
1128;SDS011;553;51.038;7.216;2023-06-22T12:37:11;16.33;;;14.73;;
1128;SDS011;553;51.038;7.216;2023-06-22T12:39:40;16.53;;;14.87;;
1128;SDS011;553;51.038;7.216;2023-06-22T12:42:07;15.23;;;13.80;;
1128;SDS011;553;51.038;7.216;2023-06-22T12:44:35;14.97;;;13.37;;
1128;SDS011;553;51.038;7.216;2023-06-22T12:47:03;15.30;;;13.80;;
1128;SDS011;553;51.038;7.216;2023-06-22T12:49:30;14.17;;;12.87;;
1128;SDS011;553;51.038;7.216;2023-06-22T12:51:57;12.63;;;11.43;;
1128;SDS011;553;51.038;7.216;2023-06-22T12:54:23;13.50;;;12.40;;
1128;SDS011;553;51.038;7.216;2023-06-22T12:56:50;11.67;;;10.53;;
1128;SDS011;553;51.038;7.216;2023-06-22T12:59:19;11.17;;;10.17;;
1128;SDS011;553;51.038;7.216;2023-06-22T13:01:46;11.20;;;10.20;;
1128;SDS011;553;51.038;7.216;2023-06-22T13:04:12;10.30;;;9.23;;
1128;SDS011;553;51.038;7.216;2023-06-22T13:06:44;8.50;;;7.70;;
1128;SDS011;553;51.038;7.216;2023-06-22T13:09:18;9.43;;;8.43;;
1128;SDS011;553;51.038;7.216;2023-06-22T13:11:47;7.90;;;7.20;;
1128;SDS011;553;51.038;7.216;2023-06-22T13:14:14;6.60;;;5.87;;
1128;SDS011;553;51.038;7.216;2023-06-22T13:16:42;7.50;;;6.80;;
1128;SDS011;553;51.038;7.216;2023-06-22T13:19:08;6.07;;;5.47;;
1128;SDS011;553;51.038;7.216;2023-06-22T13:21:36;5.30;;;4.80;;
1128;SDS011;553;51.038;7.216;2023-06-22T13:24:03;5.40;;;4.67;;
1128;SDS011;553;51.038;7.216;2023-06-22T13:26:32;5.17;;;4.67;;
1128;SDS011;553;51.038;7.216;2023-06-22T13:28:59;5.30;;;4.80;;
1128;SDS011;553;51.038;7.216;2023-06-22T13:31:26;5.63;;;5.00;;
1128;SDS011;553;51.038;7.216;2023-06-22T13:33:53;6.20;;;4.50;;
1128;SDS011;553;51.038;7.216;2023-06-22T13:36:20;5.70;;;5.10;;
1128;SDS011;553;51.038;7.216;2023-06-22T13:38:47;5.00;;;4.50;;
1128;SDS011;553;51.038;7.216;2023-06-22T13:41:14;6.10;;;5.23;;
1128;SDS011;553;51.038;7.216;2023-06-22T13:43:41;5.83;;;5.23;;
1128;SDS011;553;51.038;7.216;2023-06-22T13:46:07;6.90;;;6.20;;
1128;SDS011;553;51.038;7.216;2023-06-22T13:48:34;6.73;;;6.13;;
1128;SDS011;553;51.038;7.216;2023-06-22T13:51:01;7.00;;;6.30;;
1128;SDS011;553;51.038;7.216;2023-06-22T13:53:28;6.70;;;6.03;;
1128;SDS011;553;51.038;7.216;2023-06-22T13:55:55;7.20;;;6.50;;
1128;SDS011;553;51.038;7.216;2023-06-22T13:58:22;7.20;;;6.43;;
1128;SDS011;553;51.038;7.216;2023-06-22T14:00:49;6.63;;;6.00;;
1128;SDS011;553;51.038;7.216;2023-06-22T14:03:15;9.33;;;5.97;;
1128;SDS011;553;51.038;7.216;2023-06-22T14:05:42;7.00;;;6.30;;
1128;SDS011;553;51.038;7.216;2023-06-22T14:08:09;6.53;;;5.93;;
1128;SDS011;553;51.038;7.216;2023-06-22T14:10:56;7.70;;;6.80;;
1128;SDS011;553;51.038;7.216;2023-06-22T14:13:23;6.70;;;6.10;;
1128;SDS011;553;51.038;7.216;2023-06-22T14:15:49;6.57;;;5.97;;
1128;SDS011;553;51.038;7.216;2023-06-22T14:18:18;7.67;;;6.70;;
1128;SDS011;553;51.038;7.216;2023-06-22T14:20:45;7.27;;;6.53;;
1128;SDS011;553;51.038;7.216;2023-06-22T14:23:13;8.13;;;7.33;;
1128;SDS011;553;51.038;7.216;2023-06-22T14:25:40;8.07;;;7.27;;
1128;SDS011;553;51.038;7.216;2023-06-22T14:28:07;8.07;;;7.27;;
1128;SDS011;553;51.038;7.216;2023-06-22T14:30:34;7.20;;;6.50;;
1128;SDS011;553;51.038;7.216;2023-06-22T14:33:00;8.40;;;7.57;;
1128;SDS011;553;51.038;7.216;2023-06-22T14:35:27;7.93;;;7.00;;
1128;SDS011;553;51.038;7.216;2023-06-22T14:37:54;7.73;;;7.03;;
1128;SDS011;553;51.038;7.216;2023-06-22T14:40:20;7.27;;;6.57;;
1128;SDS011;553;51.038;7.216;2023-06-22T14:42:52;11.30;;;7.57;;
1128;SDS011;553;51.038;7.216;2023-06-22T14:45:18;9.23;;;7.47;;
1128;SDS011;553;51.038;7.216;2023-06-22T14:47:45;8.83;;;8.03;;
1128;SDS011;553;51.038;7.216;2023-06-22T14:50:12;9.43;;;7.60;;
1128;SDS011;553;51.038;7.216;2023-06-22T14:52:40;8.10;;;7.33;;
1128;SDS011;553;51.038;7.216;2023-06-22T14:55:07;9.93;;;9.00;;
1128;SDS011;553;51.038;7.216;2023-06-22T14:57:34;8.30;;;7.50;;
1128;SDS011;553;51.038;7.216;2023-06-22T15:00:01;9.03;;;8.13;;
1128;SDS011;553;51.038;7.216;2023-06-22T15:02:28;9.00;;;8.07;;
1128;SDS011;553;51.038;7.216;2023-06-22T15:04:55;9.23;;;8.37;;
1128;SDS011;553;51.038;7.216;2023-06-22T15:07:22;14.57;;;11.10;;
1128;SDS011;553;51.038;7.216;2023-06-22T15:09:49;14.07;;;10.10;;
1128;SDS011;553;51.038;7.216;2023-06-22T15:12:16;11.43;;;10.00;;
1128;SDS011;553;51.038;7.216;2023-06-22T15:14:42;11.83;;;10.67;;
1128;SDS011;553;51.038;7.216;2023-06-22T15:17:09;14.50;;;10.30;;
1128;SDS011;553;51.038;7.216;2023-06-22T15:19:36;11.97;;;10.63;;
1128;SDS011;553;51.038;7.216;2023-06-22T15:22:06;11.93;;;10.73;;
1128;SDS011;553;51.038;7.216;2023-06-22T15:24:33;9.93;;;8.93;;
1128;SDS011;553;51.038;7.216;2023-06-22T15:27:00;10.10;;;9.20;;
1128;SDS011;553;51.038;7.216;2023-06-22T15:29:27;11.60;;;10.40;;
1128;SDS011;553;51.038;7.216;2023-06-22T15:31:56;10.17;;;9.13;;
1128;SDS011;553;51.038;7.216;2023-06-22T15:34:23;12.70;;;10.43;;